Leadville, CO

6:56 PM MDT on September 15, 2014 (GMT -0600)
Lake County | Change Station
CLOSE
Current Station
Airport
Location: Leadville,
Elevation: 9928 ft
Nearby Weather Stations

Elev 9928 ft 39.23 °N, 106.32 °W | Updated 1 hour ago

Partly Cloudy
Partly Cloudy
61 °F
Feels Like 61 °F
N
7
Wind Variable Wind from Variable

Today
High -- | Low -- °F
--% Chance of Precip.
Yesterday
High -- | Low -- °F
Precip. -- in
6:46 AM 7:13 PM
Waning Gibbous, 50% visible
Pressure 30.08 in
Visibility 10.0 miles
Clouds Scattered Clouds 8000 ft
Dew Point 28 °F
Humidity 29%
Rainfall 0.00 in
Snow Depth 0 in , 0 in , 0 in
UV 1 out of 12
Pollen 7.00 out of 12
Air Quality Not available.
Flu Activity Not available.
METAR KLXV 152353Z AUTO VRB06KT 10SM SCT080 16/M02 A3049 RMK AO2 SLP184 T01611022 10183 20144 53003

More Conditions Fewer Conditions

Pressure 30.08 in
Visibility 10.0 miles
Clouds Scattered Clouds 8000 ft
Dew Point 28 °F
Humidity 29%
Rainfall 0.00 in
Snow Depth 0 in , 0 in , 0 in
UV 1 out of 12
Pollen 7.00 out of 12
Air Quality Not available.
Flu Activity Not available.
METAR KLXV 152353Z AUTO VRB06KT 10SM SCT080 16/M02 A3049 RMK AO2 SLP184 T01611022 10183 20144 53003

More Conditions Fewer Conditions

10-Day Weather Forecast

Almanac

Astronomy

Sep. 15, 2014 Rise Set
Actual Time 6:46 AM MDT 7:13 PM MDT
Civil Twilight 6:19 AM MDT 7:40 PM MDT
Nautical Twilight 5:47 AM MDT 8:11 PM MDT
Astronomical Twilight 5:15 AM MDT 8:44 PM MDT
Moon No Moon Rise 1:46 PM MDT (9/15)
Length of Visible Light 13h 20m
Length of Day
12h 27m
Tomorrow will be 2m 33s shorter.
Waning Gibbous, 50% of the Moon is Illuminated
Today
Waning Gibbous
Sep 15
Last Quarter
Sep 24
New
Oct 1
First Quarter
Oct 8
Full

Today's Extremes

State Highs State Lows

Community

WunderPhotos

Upload Photos

1,753,630 photos uploaded!

Nearby

Snow Depth

Station Depth Elevation
McClure Pass 0 in 9500 ft
Ute Creek 0 in 10650 ft
Bison Lake 0 in 10880 ft
Arapaho Ridge 0 in 10960 ft
North Lost Trail 0 in 9200 ft

Earthquake Activity

City Distance Mag. Time & Date
No recent earthquake activity has been reported nearby.
Minimum magnitude displayed is 2.5.

Coastal Water Temperatures

Place Temperature
No Stations Reporting

Nearby Weather Stations